createdAt,value
2023-01-23T00:01:55.638Z,19.60
2023-01-23T00:06:57.038Z,19.60
2023-01-23T00:11:58.512Z,19.60
2023-01-23T00:16:59.927Z,19.60
2023-01-23T00:22:01.334Z,19.60
2023-01-23T00:27:02.757Z,19.60
2023-01-23T00:32:04.230Z,19.60
2023-01-23T00:37:05.663Z,19.60
2023-01-23T00:42:07.123Z,19.50
2023-01-23T00:47:08.536Z,19.50
2023-01-23T00:52:09.937Z,19.60
2023-01-23T00:57:11.339Z,19.60
2023-01-23T01:02:12.741Z,19.60
2023-01-23T01:07:14.128Z,19.60
2023-01-23T01:12:15.547Z,19.70
2023-01-23T01:17:16.974Z,19.70
2023-01-23T01:22:18.373Z,19.70
2023-01-23T01:27:19.813Z,19.60
2023-01-23T01:32:21.208Z,19.70
2023-01-23T01:37:22.615Z,19.60
2023-01-23T01:42:24.015Z,19.60
2023-01-23T01:47:25.416Z,19.60
2023-01-23T01:52:26.812Z,19.60
2023-01-23T01:57:28.199Z,19.60
2023-01-23T02:02:29.739Z,19.60
2023-01-23T02:07:31.149Z,19.50
2023-01-23T02:12:32.556Z,19.50
2023-01-23T02:17:33.991Z,19.50
2023-01-23T02:22:35.408Z,19.50
2023-01-23T02:27:36.806Z,19.50
2023-01-23T02:32:38.219Z,19.50
2023-01-23T02:37:39.616Z,19.60
2023-01-23T02:42:41.020Z,19.60
2023-01-23T02:47:42.483Z,19.60
2023-01-23T02:52:44.864Z,19.60
2023-01-23T02:57:46.262Z,19.70
2023-01-23T03:02:47.698Z,19.60
2023-01-23T03:07:49.166Z,19.60
2023-01-23T03:12:50.700Z,19.60
2023-01-23T03:17:52.225Z,19.60
2023-01-23T03:22:53.625Z,19.60
2023-01-23T03:27:55.021Z,19.60
2023-01-23T03:32:56.428Z,19.60
2023-01-23T03:37:57.828Z,19.60
2023-01-23T03:42:59.233Z,19.60
2023-01-23T03:48:00.660Z,19.60
2023-01-23T03:53:02.096Z,19.60
2023-01-23T03:58:03.509Z,19.50
2023-01-23T04:03:05.014Z,19.50
2023-01-23T04:08:06.485Z,19.50
2023-01-23T04:13:07.882Z,19.50
2023-01-23T04:18:09.289Z,19.60
2023-01-23T04:23:10.717Z,19.60
2023-01-23T04:28:12.120Z,19.60
2023-01-23T04:33:13.952Z,19.70
2023-01-23T04:38:15.353Z,19.70
2023-01-23T04:43:16.788Z,19.70
2023-01-23T04:48:18.255Z,19.70
2023-01-23T04:53:19.671Z,19.70
2023-01-23T04:58:21.093Z,19.70
2023-01-23T05:03:22.528Z,19.70
2023-01-23T05:08:23.927Z,19.70
2023-01-23T05:13:25.352Z,19.60
2023-01-23T05:18:26.783Z,19.60
2023-01-23T05:23:28.194Z,19.60
2023-01-23T05:28:29.598Z,19.60
2023-01-23T05:33:31.000Z,19.60
2023-01-23T05:38:32.391Z,19.60
2023-01-23T05:43:33.812Z,19.50
2023-01-23T05:48:35.229Z,19.60
2023-01-23T05:53:36.654Z,19.60
2023-01-23T05:58:38.056Z,19.60
2023-01-23T06:03:39.494Z,19.60
2023-01-23T06:08:40.925Z,19.60
2023-01-23T06:13:42.347Z,19.70
2023-01-23T06:18:43.761Z,19.70
2023-01-23T06:23:45.151Z,19.70
2023-01-23T06:28:46.563Z,19.70
2023-01-23T06:33:49.090Z,19.70
2023-01-23T06:38:50.509Z,19.70
2023-01-23T06:43:51.911Z,19.70
2023-01-23T06:48:53.320Z,19.70
2023-01-23T06:53:55.005Z,19.70
2023-01-23T06:58:56.456Z,19.60
2023-01-23T07:03:57.867Z,19.60
2023-01-23T07:08:59.289Z,19.60
2023-01-23T07:14:00.756Z,19.60
2023-01-23T07:19:02.181Z,19.60
2023-01-23T07:24:03.592Z,19.60
2023-01-23T07:29:05.056Z,19.50
2023-01-23T07:34:06.487Z,19.50
2023-01-23T07:39:07.890Z,19.50
2023-01-23T07:44:09.296Z,19.50
2023-01-23T07:49:10.692Z,19.50
2023-01-23T07:54:12.116Z,19.50
2023-01-23T07:59:13.539Z,19.50
2023-01-23T08:04:15.004Z,19.50
2023-01-23T08:09:16.502Z,19.50
2023-01-23T08:14:17.915Z,19.50
2023-01-23T08:19:19.318Z,19.50
2023-01-23T08:24:20.752Z,19.50
2023-01-23T08:29:22.185Z,19.50
2023-01-23T08:34:23.604Z,19.60
2023-01-23T08:39:25.018Z,19.50
2023-01-23T08:44:26.432Z,19.50
2023-01-23T08:49:27.854Z,19.50
2023-01-23T08:54:29.268Z,19.50
2023-01-23T08:59:30.677Z,19.50
2023-01-23T09:04:32.197Z,19.50
2023-01-23T09:09:33.594Z,19.50
2023-01-23T09:14:35.115Z,19.50
2023-01-23T09:19:36.523Z,19.50
2023-01-23T09:24:37.927Z,19.50
2023-01-23T09:29:39.354Z,19.50
2023-01-23T09:34:40.750Z,19.50
2023-01-23T09:39:42.144Z,19.50
2023-01-23T09:44:43.574Z,19.50
2023-01-23T09:49:45.033Z,19.50
2023-01-23T09:54:46.557Z,19.50
2023-01-23T09:59:59.873Z,19.50
2023-01-23T10:05:02.248Z,19.50
2023-01-23T10:10:05.702Z,19.50
2023-01-23T10:15:08.258Z,19.50
2023-01-23T10:20:09.687Z,19.50
2023-01-23T10:25:11.103Z,19.40
2023-01-23T10:30:12.503Z,19.40
2023-01-23T10:35:13.933Z,19.50
2023-01-23T10:40:15.356Z,19.50
2023-01-23T10:45:16.797Z,19.50
2023-01-23T10:50:18.233Z,19.50
2023-01-23T10:55:20.118Z,19.50
2023-01-23T11:00:21.696Z,19.50
2023-01-23T11:05:23.107Z,19.50
2023-01-23T11:10:24.560Z,19.50
2023-01-23T11:15:26.158Z,19.50
2023-01-23T11:20:27.564Z,19.50
2023-01-23T11:25:28.981Z,19.50
2023-01-23T11:30:30.390Z,19.50
2023-01-23T11:35:31.805Z,19.50
2023-01-23T11:40:33.208Z,19.50
2023-01-23T11:45:34.624Z,19.50
2023-01-23T11:50:43.614Z,19.50
2023-01-23T11:55:51.487Z,19.50
2023-01-23T12:00:52.899Z,19.50
2023-01-23T12:06:03.050Z,19.50
2023-01-23T12:11:11.795Z,19.50
2023-01-23T12:16:13.275Z,19.50
2023-01-23T12:21:14.717Z,19.50
2023-01-23T12:26:16.124Z,19.60
2023-01-23T12:31:17.613Z,19.50
2023-01-23T12:36:19.084Z,19.50
2023-01-23T12:41:20.486Z,19.50
2023-01-23T12:46:21.881Z,19.50
2023-01-23T12:51:23.419Z,19.50
2023-01-23T12:56:24.846Z,19.50
2023-01-23T13:01:26.271Z,19.50
2023-01-23T13:06:27.694Z,19.50
2023-01-23T13:11:29.133Z,19.50
2023-01-23T13:16:30.611Z,19.50
2023-01-23T13:21:32.049Z,19.50
2023-01-23T13:26:33.469Z,19.50
2023-01-23T13:31:34.988Z,19.50
2023-01-23T13:36:37.227Z,19.50
2023-01-23T13:41:38.657Z,19.50
2023-01-23T13:46:40.410Z,19.50
2023-01-23T14:23:14.215Z,19.70
2023-01-23T14:28:15.693Z,19.70
2023-01-23T14:33:17.200Z,19.70
2023-01-23T14:38:18.663Z,19.70
2023-01-23T14:43:20.089Z,19.60
2023-01-23T14:48:21.495Z,19.60
2023-01-23T14:53:22.903Z,19.50
2023-01-23T14:58:24.350Z,19.50
2023-01-23T15:03:25.889Z,19.50
2023-01-23T15:08:27.835Z,19.50
2023-01-23T15:13:29.310Z,19.50
2023-01-23T15:18:30.795Z,19.50
2023-01-23T15:23:32.277Z,19.50
2023-01-23T15:28:33.743Z,19.50
2023-01-23T15:33:35.152Z,19.50
2023-01-23T15:38:36.557Z,19.50
2023-01-23T15:43:38.033Z,19.50
2023-01-23T15:48:39.455Z,19.50
2023-01-23T15:53:40.860Z,19.60
2023-01-23T15:58:42.277Z,19.60
2023-01-23T16:03:43.699Z,19.60
2023-01-23T16:08:46.944Z,19.60
2023-01-23T16:13:51.435Z,19.60
2023-01-23T16:18:52.897Z,19.60
2023-01-23T16:23:54.613Z,19.60
2023-01-23T16:29:08.671Z,19.60
2023-01-23T16:34:14.707Z,19.60
2023-01-23T16:39:16.149Z,19.60
2023-01-23T16:44:17.568Z,19.60
2023-01-23T16:49:19.017Z,19.70
2023-01-23T16:54:20.431Z,19.70
2023-01-23T16:59:21.839Z,19.70
2023-01-23T17:04:23.252Z,19.80
2023-01-23T17:09:24.777Z,19.90
2023-01-23T17:14:26.238Z,19.90
2023-01-23T17:19:27.654Z,19.90
2023-01-23T17:24:29.063Z,20.00
2023-01-23T17:29:30.544Z,20.10
2023-01-23T17:34:36.022Z,20.10
2023-01-23T17:39:42.891Z,20.20
2023-01-23T17:44:44.314Z,20.30
2023-01-23T17:49:45.908Z,20.30
2023-01-23T17:54:47.321Z,20.40
2023-01-23T17:59:48.729Z,20.40
2023-01-23T18:04:50.139Z,20.40
2023-01-23T18:09:51.572Z,20.40
2023-01-23T18:14:53.079Z,20.40
2023-01-23T18:19:54.620Z,20.40
2023-01-23T18:24:56.034Z,20.40
2023-01-23T18:29:57.442Z,20.40
2023-01-23T18:34:58.863Z,20.50
2023-01-23T18:40:00.306Z,20.50
2023-01-23T18:45:01.711Z,20.60
2023-01-23T18:50:03.154Z,20.60
2023-01-23T18:55:04.565Z,20.60
2023-01-23T19:00:05.996Z,20.60
2023-01-23T19:05:07.391Z,20.60
2023-01-23T19:10:08.813Z,20.60
2023-01-23T19:15:10.226Z,20.60
2023-01-23T19:20:11.624Z,20.60
2023-01-23T19:25:13.055Z,20.60
2023-01-23T19:30:14.461Z,20.60
2023-01-23T19:35:15.888Z,20.60
2023-01-23T19:40:17.307Z,20.70
2023-01-23T19:45:19.079Z,20.70
2023-01-23T19:50:20.764Z,20.70
2023-01-23T19:55:22.405Z,20.70
2023-01-23T20:00:24.052Z,20.60
2023-01-23T20:05:25.482Z,20.60
2023-01-23T20:10:26.891Z,20.70
2023-01-23T20:15:28.320Z,20.70
2023-01-23T20:20:29.727Z,20.70
2023-01-23T20:25:31.164Z,20.70
2023-01-23T20:30:35.648Z,20.70
2023-01-23T20:35:37.179Z,20.70
2023-01-23T20:40:38.658Z,20.70
2023-01-23T20:45:40.077Z,20.70
2023-01-23T20:50:41.545Z,20.70
2023-01-23T20:55:43.013Z,20.70
2023-01-23T21:00:44.517Z,20.70
2023-01-23T21:05:46.092Z,20.70
2023-01-23T21:10:47.537Z,20.70
2023-01-23T21:15:49.013Z,20.70
2023-01-23T21:20:50.448Z,20.70
2023-01-23T21:25:51.904Z,20.70
2023-01-23T21:30:53.362Z,20.70
2023-01-23T21:35:54.819Z,20.60
2023-01-23T21:40:56.369Z,20.60
2023-01-23T21:45:57.799Z,20.50
2023-01-23T21:50:59.221Z,20.50
2023-01-23T21:56:00.647Z,20.40
2023-01-23T22:01:02.063Z,20.40
2023-01-23T22:06:03.482Z,20.40
2023-01-23T22:11:04.913Z,20.30
2023-01-23T22:16:06.540Z,20.30
2023-01-23T22:21:08.008Z,20.30
2023-01-23T22:26:09.431Z,20.30
2023-01-23T22:31:10.976Z,20.30
2023-01-23T22:36:12.497Z,20.30
2023-01-23T22:41:13.915Z,20.20
2023-01-23T22:46:15.334Z,20.20
2023-01-23T22:51:16.756Z,20.20
2023-01-23T22:56:18.164Z,20.20
2023-01-23T23:01:19.634Z,20.10
2023-01-23T23:06:21.097Z,20.10
2023-01-23T23:11:22.504Z,20.10
2023-01-23T23:16:23.913Z,20.10
2023-01-23T23:21:25.355Z,20.10
2023-01-23T23:26:26.775Z,20.00
2023-01-23T23:31:28.332Z,20.10
2023-01-23T23:36:29.829Z,20.00
2023-01-23T23:41:31.237Z,20.00
2023-01-23T23:46:32.672Z,20.00
2023-01-23T23:51:34.112Z,20.00
2023-01-23T23:56:35.515Z,20.00
